EmailTwitter


Observations de surface / France / LFBP (07610)

Régions: Québec | Canada | États-Unis | Europe | France | UK | Ailleurs
Station
Affichage
Infos & localisation pour LFBP (07610) | Aide pour décoder les METARs

Observations prises le 2018-01-23 à 05H30 UTC à PONT-LONG-UZEIN/, FR (LFBP)

Etat du ciel: couvert.

Température: 9.0 Celsius

Point de rosée: 9.0 Celsius

Humidité relative: 100%

Vents: Sud-est à 7 km/h ou 4 noeuds.

Pression au niveau moyen de la mer: 102.80 kilopascals.

Visibilité horizontale: 4.35 milles terrestres ou 6.96 kilomètres.

Hauteur du plafond: 61 mètres ( 200 pieds ).

Observation METAR:

LFBP 230530Z AUTO 15004KT 7000 BKN002 OVC033 09/09 Q1028 TEMPO 0500 FG VV///=